Aviation Digital Data Service (ADDS)

Output produced by METARs form (0232 UTC 16 January 2019)
found at http://www.aviationweather.gov/metar/data/
 
KGBD 152339Z 1600/1624 24005KT P6SM FEW010 
     FM160300 25005KT 4SM BR SCT010 
     FM160800 35005KT 3SM BR SCT020 BKN035 
     FM161200 03006KT 2SM BR OVC020 
     FM161600 07006KT 5SM BR OVC009 AMD LTD TO CLD VIS AND WIND
       
KGCC 152328Z 1600/1624 16008KT P6SM BKN150
       
KGCK 152342Z 1600/1624 VRB04KT P6SM FEW250 
     FM161600 07007KT P6SM BKN060 
     FM161800 10008KT P6SM BKN025 
     FM162100 10007KT P6SM BKN010 
     FM162300 07007KT P6SM BKN008
       
KGCN 152324Z 1600/1624 18009KT 2SM -SN BR BKN006 OVC014 
     TEMPO 1600/1604 3/4SM -SHSN BR OVC005 
     FM160400 22006KT 2SM -SHSN SCT005 OVC010 
     FM161500 23007KT P6SM BKN020
       
KGDV 152324Z 1600/1624 VRB06KT P6SM BKN015 
     FM162100 VRB06KT P6SM BKN250
       
KGEG 152325Z 1600/1624 05005KT P6SM SCT150 BKN200 
     FM160600 04005KT P6SM OVC060 
     FM161200 04005KT 1/2SM FZFG BKN005 
     FM161700 04005KT P6SM SCT100 SCT250
       
TAF KGFA 152000Z 1520/1702 20009KT 9999 SKC QNH2994INS 
     BECMG 1603/1604 20009KT 9999 SCT040 BKN070 QNH2988INS 
     BECMG 1611/1612 22012KT 9999 SCT100 QNH2989INS TX04/1522Z TNM08/1612Z
       
KGFK 160103Z 1601/1624 35017G27KT P6SM BKN010 
     FM160200 35014G20KT P6SM SCT011 
     FM160300 34013KT P6SM SKC 
     FM160900 34006KT P6SM SKC 
     FM161600 VRB03KT P6SM SCT200
       
KGFL 152328Z 1600/1624 VRB03KT P6SM BKN040 
     FM161400 21008KT P6SM BKN040 
     FM161800 21010G14KT P6SM BKN040
       
KGGG 152323Z 1600/1624 16004KT P6SM OVC045 
     TEMPO 1604/1608 OVC030 
     FM160800 17004KT P6SM OVC025 
     TEMPO 1610/1614 OVC015 
     FM161400 17006KT P6SM OVC015 
     FM161900 18010KT P6SM OVC025
       
KGGW 152324Z 1600/1624 09008KT P6SM BKN020 
     TEMPO 1602/1606 BKN015 
     FM160600 10012KT P6SM BKN015 
     FM162000 VRB06KT P6SM SKC
       
KGJT 152344Z 1600/1624 31005KT P6SM VCSH FEW045 OVC060 
     FM160500 VRB04KT 5SM -SHSNRA BKN025 OVC045 
     FM161000 VRB04KT 3SM -SHSN BKN015 OVC040
       
KGKY 152331Z 1600/1624 16008KT P6SM OVC035 
     TEMPO 1601/1603 BKN025 
     FM160300 17007KT P6SM BKN025 
     FM161100 18010KT P6SM SCT004 OVC010 
     FM161900 19014KT P6SM BKN020 
     FM162200 19013KT P6SM SCT025 BKN250
       
KGLD 152339Z 1600/1624 VRB04KT P6SM FEW250 
     FM161100 12006KT P6SM OVC090 
     FM161600 15009KT P6SM SCT015 OVC050
       
KGLH 152323Z 1600/1624 26004KT P6SM OVC022 
     FM160600 22003KT P6SM SKC
       
KGLS 152325Z 1600/1624 07007KT P6SM VCSH OVC050 
     FM160800 12006KT P6SM OVC025 
     FM161400 12007KT P6SM VCSH OVC015
       
KGMU 152322Z 1600/1624 24003KT P6SM FEW023 
     FM160300 VRB03KT P6SM FEW035 
     FM161700 22005KT P6SM SKC
       
KGNV 160141Z 1602/1624 34003KT P6SM SCT030 
     FM161500 32005KT P6SM FEW030 SCT250
       
KGON 152344Z 1600/1624 VRB03KT P6SM FEW250 
     FM160800 25005KT P6SM FEW250 
     FM161000 25008KT P6SM FEW045 
     FM161500 26012G20KT P6SM BKN040 
     FM162200 27010KT P6SM BKN100
       
KGPT 152323Z 1600/1624 VRB03KT P6SM SCT250 
     FM161100 VRB04KT P6SM FEW120 SCT250 
     FM162000 18005KT P6SM FEW140 FEW250
       
KGRB 160159Z 1602/1624 25012G21KT 6SM -FZDZ BR OVC012 WS020/26035KT 
     FM160300 28013G21KT P6SM OVC015 
     FM160600 30011G17KT P6SM BKN021 
     FM160800 33010G16KT P6SM SCT035 
     FM161300 36006KT P6SM SKC
       
TAF KGRF 152106Z 1521/1703 03009KT 9999 SCT100 BKN200 QNH2983INS 
     BECMG 1608/1609 VRB06KT 9999 BKN080 620802 QNH2985INS TX07/1522Z
TNM03/1615Z
       
KGRI 152335Z 1600/1624 32006KT P6SM SKC 
     FM160600 01008KT P6SM BKN014 
     FM160800 02008KT P6SM BKN006 
     FM161500 06006KT P6SM OVC007 
     FM161800 11006KT P6SM OVC021 
     FM162000 13005KT P6SM OVC035
       
TAF KGRK 160000Z 1600/1706 19006KT 9999 BKN017 OVC030 QNH3020INS 
     BECMG 1602/1603 19006KT 6000 BR BKN007 QNH3023INS 
     BECMG 1604/1605 19006KT 3200 BR BKN005 QNH3022INS 
     TEMPO 1612/1614 0800 FG 
     BECMG 1617/1618 18010G15KT 9999 NSW BKN017 QNH3018INS 
     BECMG 1702/1703 19006KT 8000 BR SCT002 OVC003 QNH3013INS TX18/1620Z
TN06/1612Z
       
KGRR 152330Z 1600/1624 23014G22KT P6SM OVC008 
     FM160400 25014G23KT 2SM -FZDZ BR OVC004 
     FM160700 26012G20KT 3SM -SHSN OVC008 
     FM161000 29012KT P6SM BKN025 
     FM161800 35008KT P6SM FEW035
       
TAF KGSB 152111Z 1521/1703 36007KT 9999 SCT032 QNH3016INS 
     BECMG 1600/1601 VRB03KT 9999 SKC QNH3019INS 
     BECMG 1609/1610 25005KT 9999 SKC QNH3016INS 
     BECMG 1614/1615 27010KT 9999 SKC QNH3015INS 
     BECMG 1622/1623 VRB03KT 9999 SKC QNH3017INS TX12/1621Z TNM01/1612Z
       
KGSO 152339Z 1600/1624 VRB03KT P6SM FEW025 
     FM160400 VRB02KT P6SM SKC 
     FM161600 27004KT P6SM BKN250
       
KGSP 152322Z 1600/1624 24004KT P6SM FEW025 
     FM161400 29003KT P6SM SKC 
     FM161700 24004KT P6SM SKC
       
TAF KGTB 160100Z 1601/1707 24006KT 4800 -SN OVC008 620085 QNH2979INS 
     TEMPO 1601/1608 -FZDZ 660001 
     BECMG 1617/1618 27015G25KT 9999 NSW BKN015 620155 QNH2986INS 
     BECMG 1622/1623 35012KT 9999 SCT030 QNH2983INS TX00/1617Z TNM09/1623Z
       
KGTF 152337Z 1600/1624 VRB06KT P6SM SCT070 BKN150 
     FM160800 20005KT P6SM FEW120 SCT180
       
KGTR 152323Z 1600/1624 04004KT P6SM SKC 
     FM161800 25004KT P6SM SKC
       
KGUC 152344Z 1600/1624 10006KT P6SM SKC 
     FM160100 VRB03KT P6SM BKN050 
     FM160600 VRB03KT P6SM VCSH BKN020 OVC045 
     FM161000 VRB03KT 3SM -SHSN BR BKN010 OVC040 
     FM161600 24005KT 2SM -SHSN BR BKN008 OVC030
       
KGUP 152324Z 1600/1624 VRB06KT P6SM BKN035 
     FM160300 18007KT 5SM -RA BR OVC020 
     FM160600 20010KT 5SM -RASN BR OVC007 
     TEMPO 1610/1614 1SM -SN BR 
     FM161500 23010KT 5SM BR VCSH OVC012 
     FM161900 25010KT P6SM BKN035
       
TAF AMD KGUS 160000Z 1600/1701 25015G25KT 8000 -FZDZ OVC006 660001 QNH3011INS 
     BECMG 1602/1603 26012KT 8000 -FZDZ OVC006 660001 QNH3010INS 
     BECMG 1606/1607 26009KT 8000 -SN OVC005 620055 QNH3010INS 
     TEMPO 1607/1612 -FZDZ 660001 
     BECMG 1614/1615 29006KT 9999 NSW OVC008 QNH3010INS TX00/1618Z TNM03/1600Z
       
KGWO 152323Z 1600/1624 00000KT P6SM SKC 
     FM160800 23002KT P6SM SKC 
     FM162100 20006KT P6SM OVC100
       
KGYY 152338Z 1600/1624 24013G20KT 6SM -FZDZSN BR OVC008 
     FM160400 25010G15KT 4SM -FZDZSN BR OVC006 
     FM160900 30009KT P6SM OVC010 
     FM161200 33009KT P6SM BKN025 
     FM161500 36010KT P6SM SCT025 BKN250 
     FM161800 02009KT P6SM BKN030